| time (UTC) | temp C | wind direction | speed KPH | gust KPH | rain 1hr cm | rain 24hr cm | rain mn cm | humidity % | barometer mb |
| 20260507101504 | 7 | 276 | 3.2 | 11.3 | 0.00 | 0.43 | 0.03 | 87 | 1007.9 |
| 20260507100503 | 7 | 274 | 4.8 | 11.3 | 0.00 | 0.43 | 0.03 | 87 | 1007.8 |
| 20260507095504 | 7 | 273 | 3.2 | 12.9 | 0.00 | 0.43 | 0.03 | 88 | 1007.9 |
| 20260507094504 | 7 | 276 | 6.4 | 14.5 | 0.00 | 0.43 | 0.03 | 88 | 1007.7 |
| 20260507093504 | 7 | 276 | 3.2 | 12.9 | 0.00 | 0.43 | 0.03 | 88 | 1008.0 |
| 20260507092504 | 7 | 272 | 11.3 | 19.3 | 0.00 | 0.43 | 0.03 | 88 | 1007.9 |
| 20260507091503 | 7 | 268 | 8.0 | 14.5 | 0.00 | 0.43 | 0.03 | 88 | 1008.0 |
| 20260507090504 | 7 | 274 | 8.0 | 12.9 | 0.00 | 0.43 | 0.03 | 89 | 1007.9 |
| 20260507085504 | 7 | 279 | 4.8 | 14.5 | 0.00 | 0.43 | 0.03 | 88 | 1008.3 |
| 20260507084504 | 7 | 279 | 4.8 | 14.5 | 0.00 | 0.43 | 0.03 | 89 | 1008.6 |
| 20260507083504 | 7 | 261 | 3.2 | 11.3 | 0.00 | 0.43 | 0.03 | 89 | 1008.1 |
| 20260507081505 | 7 | 276 | 6.4 | 12.9 | 0.03 | 0.43 | 0.03 | 89 | 1007.8 |
| 20260507080503 | 7 | 280 | 4.8 | 11.3 | 0.03 | 0.43 | 0.03 | 90 | 1007.8 |
| 20260507075504 | 7 | 277 | 3.2 | 11.3 | 0.03 | 0.43 | 0.03 | 90 | 1007.6 |
| 20260507072503 | 7 | 268 | 6.4 | 14.5 | 0.03 | 0.43 | 0.03 | 88 | 1008.0 |
| 20260507071504 | 7 | 273 | 4.8 | 11.3 | 0.00 | 0.41 | 0.00 | 87 | 1007.9 |
| 20260507070504 | 7 | 267 | 8.0 | 11.3 | 0.00 | 0.41 | 0.00 | 87 | 1007.5 |
| 20260507065505 | 7 | 267 | 3.2 | 12.9 | 0.00 | 0.41 | 0.00 | 86 | 1007.5 |
| 20260507062504 | 8 | 266 | 11.3 | 20.9 | 0.00 | 0.41 | 0.00 | 86 | 1007.2 |
| 20260507060503 | 8 | 268 | 6.4 | 11.3 | 0.00 | 0.41 | 0.00 | 87 | 1007.2 |
| 20260507054503 | 8 | 273 | 4.8 | 14.5 | 0.00 | 0.41 | 0.00 | 89 | 1007.6 |
| 20260507053504 | 8 | 276 | 8.0 | 16.1 | 0.00 | 0.41 | 0.00 | 89 | 1007.8 |
| 20260507052504 | 8 | 272 | 11.3 | 19.3 | 0.00 | 0.41 | 0.00 | 90 | 1007.7 |
| 20260507051504 | 8 | 266 | 6.4 | 16.1 | 0.00 | 0.41 | 0.00 | 90 | 1007.8 |
| 20260507050504 | 8 | 270 | 4.8 | 9.7 | 0.00 | 0.41 | 0.00 | 91 | 1007.8 |
| 20260507045504 | 8 | 250 | 3.2 | 8.0 | 0.00 | 0.41 | 0.00 | 91 | 1007.7 |
| 20260507044504 | 9 | 251 | 1.6 | 12.9 | 0.00 | 0.41 | 0.00 | 91 | 1007.7 |
| 20260507043503 | 9 | 253 | 3.2 | 12.9 | 0.00 | 0.41 | 0.00 | 91 | 1007.5 |
| 20260507042504 | 9 | 260 | 9.7 | 22.5 | 0.00 | 0.41 | 0.00 | 90 | 1007.4 |
| 20260507041504 | 9 | 276 | 11.3 | 25.7 | 0.00 | 0.41 | 0.00 | 91 | 1007.3 |
| 20260507035503 | 10 | 250 | 12.9 | 24.1 | 0.00 | 0.41 | 0.41 | 92 | 1007.4 |
| 20260507034504 | 10 | 260 | 9.7 | 24.1 | 0.00 | 0.41 | 0.41 | 94 | 1007.3 |
| 20260507033504 | 10 | 277 | 11.3 | 22.5 | 0.00 | 0.41 | 0.41 | 95 | 1007.2 |
| 20260507032504 | 10 | 260 | 12.9 | 20.9 | 0.05 | 0.41 | 0.41 | 94 | 1007.0 |
| 20260507031504 | 11 | 274 | 14.5 | 24.1 | 0.10 | 0.41 | 0.41 | 94 | 1006.9 |
| 20260507025504 | 11 | 270 | 16.1 | 32.2 | 0.10 | 0.41 | 0.41 | 91 | 1006.8 |
| 20260507024503 | 11 | 280 | 14.5 | 32.2 | 0.10 | 0.41 | 0.41 | 92 | 1006.7 |
| 20260507023505 | 12 | 261 | 14.5 | 25.7 | 0.13 | 0.41 | 0.41 | 93 | 1006.9 |
| 20260507022504 | 12 | 270 | 11.3 | 24.1 | 0.08 | 0.36 | 0.36 | 93 | 1007.3 |
| 20260507021503 | 13 | 276 | 14.5 | 27.4 | 0.03 | 0.30 | 0.30 | 92 | 1006.7 |
| 20260507014503 | 13 | 273 | 14.5 | 22.5 | 0.03 | 0.30 | 0.30 | 96 | 1006.4 |
| 20260507013504 | 14 | 277 | 11.3 | 24.1 | 0.00 | 0.28 | 0.28 | 96 | 1006.3 |
| 20260507012503 | 14 | 278 | 8.0 | 16.1 | 0.00 | 0.28 | 0.28 | 95 | 1006.1 |
| 20260507011503 | 14 | 277 | 12.9 | 25.7 | 0.00 | 0.28 | 0.28 | 95 | 1005.9 |
| 20260507010504 | 14 | 278 | 8.0 | 25.7 | 0.00 | 0.28 | 0.28 | 95 | 1006.0 |
| 20260507005504 | 14 | 282 | 11.3 | 22.5 | 0.00 | 0.28 | 0.28 | 95 | 1006.1 |
| 20260507003504 | 14 | 286 | 8.0 | 20.9 | 0.00 | 0.28 | 0.28 | 94 | 1005.8 |
| 20260507001504 | 15 | 285 | 6.4 | 19.3 | 0.00 | 0.28 | 0.28 | 94 | 1005.6 |
| 20260507000503 | 15 | 285 | 8.0 | 22.5 | 0.00 | 0.28 | 0.28 | 93 | 1005.6 |
| 20260506235504 | 15 | 285 | 8.0 | 22.5 | 0.00 | 0.28 | 0.28 | 94 | 1005.5 |
| 20260506234504 | 15 | 285 | 4.8 | 20.9 | 0.00 | 0.28 | 0.28 | 93 | 1005.5 |
| 20260506233504 | 15 | 286 | 3.2 | 11.3 | 0.00 | 0.28 | 0.28 | 93 | 1005.4 |
| 20260506232503 | 15 | 285 | 12.9 | 24.1 | 0.00 | 0.28 | 0.28 | 93 | 1005.4 |
| 20260506231504 | 15 | 273 | 1.6 | 19.3 | 0.00 | 0.28 | 0.28 | 93 | 1005.4 |
| 20260506225504 | 15 | 276 | 11.3 | 20.9 | 0.00 | 0.28 | 0.28 | 93 | 1005.4 |
| 20260506224504 | 15 | 277 | 8.0 | 22.5 | 0.00 | 0.28 | 0.28 | 93 | 1005.6 |
| 20260506223504 | 15 | 282 | 8.0 | 24.1 | 0.00 | 0.28 | 0.28 | 93 | 1005.6 |
| 20260506222503 | 15 | 284 | 8.0 | 22.5 | 0.00 | 0.28 | 0.28 | 94 | 1005.6 |
| 20260506221504 | 14 | 278 | 8.0 | 25.7 | 0.00 | 0.28 | 0.28 | 94 | 1005.6 |
| 20260506220504 | 14 | 283 | 8.0 | 20.9 | 0.03 | 0.28 | 0.28 | 94 | 1005.7 |
| 20260506215503 | 14 | 281 | 4.8 | 19.3 | 0.08 | 0.28 | 0.28 | 94 | 1005.7 |
| 20260506214504 | 14 | 284 | 4.8 | 16.1 | 0.08 | 0.28 | 0.28 | 94 | 1005.7 |
| 20260506212504 | 14 | 279 | 9.7 | 20.9 | 0.10 | 0.28 | 0.28 | 95 | 1005.7 |
| 20260506211504 | 14 | 287 | 6.4 | 19.3 | 0.10 | 0.28 | 0.28 | 95 | 1005.7 |
| 20260506210503 | 14 | 287 | 4.8 | 20.9 | 0.10 | 0.25 | 0.25 | 95 | 1005.7 |
| 20260506205504 | 15 | 286 | 8.0 | 19.3 | 0.08 | 0.20 | 0.20 | 94 | 1005.8 |
| 20260506204504 | 15 | 275 | 4.8 | 16.1 | 0.08 | 0.20 | 0.20 | 95 | 1006.0 |
| 20260506203504 | 15 | 285 | 3.2 | 27.4 | 0.10 | 0.20 | 0.20 | 94 | 1006.1 |
| 20260506202504 | 15 | 285 | 6.4 | 19.3 | 0.08 | 0.18 | 0.18 | 95 | 1006.1 |
| 20260506201504 | 15 | 278 | 6.4 | 20.9 | 0.10 | 0.18 | 0.18 | 94 | 1006.2 |
| 20260506200504 | 15 | 285 | 3.2 | 14.5 | 0.08 | 0.15 | 0.15 | 94 | 1006.4 |
| 20260506195504 | 15 | 285 | 4.8 | 19.3 | 0.05 | 0.13 | 0.13 | 93 | 1006.4 |
| 20260506194503 | 15 | 282 | 4.8 | 14.5 | 0.05 | 0.13 | 0.13 | 93 | 1006.5 |
| 20260506192504 | 15 | 287 | 6.4 | 19.3 | 0.03 | 0.10 | 0.10 | 91 | 1006.6 |
| 20260506190504 | 16 | 289 | 6.4 | 16.1 | 0.03 | 0.08 | 0.08 | 90 | 1006.7 |
| 20260506183505 | 16 | 285 | 8.0 | 14.5 | 0.05 | 0.08 | 0.08 | 89 | 1007.0 |
| 20260506182503 | 16 | 283 | 4.8 | 14.5 | 0.08 | 0.08 | 0.08 | 88 | 1007.2 |
| 20260506181503 | 16 | 277 | 1.6 | 11.3 | 0.08 | 0.08 | 0.08 | 88 | 1007.4 |
| 20260506180504 | 16 | 285 | 3.2 | 9.7 | 0.05 | 0.05 | 0.05 | 87 | 1007.7 |
| 20260506174503 | 16 | 283 | 4.8 | 12.9 | 0.03 | 0.03 | 0.03 | 83 | 1007.9 |
| 20260506173504 | 17 | 283 | 3.2 | 14.5 | 0.03 | 0.03 | 0.03 | 80 | 1008.1 |
| 20260506172504 | 17 | 285 | 14.5 | 24.1 | 0.00 | 0.00 | 0.00 | 75 | 1008.1 |
| 20260506171505 | 17 | 283 | 4.8 | 24.1 | 0.00 | 0.00 | 0.00 | 73 | 1007.9 |
| 20260506170504 | 17 | 283 | 9.7 | 22.5 | 0.00 | 0.00 | 0.00 | 71 | 1008.0 |
| 20260506163504 | 18 | 289 | 11.3 | 32.2 | 0.00 | 0.00 | 0.00 | 68 | 1008.1 |
| 20260506162503 | 18 | 297 | 12.9 | 33.8 | 0.00 | 0.03 | 0.00 | 68 | 1008.2 |
| 20260506161503 | 18 | 285 | 9.7 | 29.0 | 0.00 | 0.03 | 0.00 | 68 | 1008.4 |
| 20260506160503 | 18 | 295 | 11.3 | 25.7 | 0.00 | 0.03 | 0.00 | 68 | 1008.5 |
| 20260506155503 | 18 | 295 | 19.3 | 32.2 | 0.00 | 0.03 | 0.00 | 67 | 1008.6 |
| 20260506154504 | 18 | 289 | 14.5 | 33.8 | 0.00 | 0.03 | 0.00 | 68 | 1008.8 |
| 20260506153505 | 18 | 278 | 14.5 | 33.8 | 0.00 | 0.03 | 0.00 | 68 | 1009.0 |
| 20260506152504 | 18 | 291 | 14.5 | 32.2 | 0.00 | 0.05 | 0.00 | 67 | 1009.0 |
| 20260506151503 | 18 | 290 | 9.7 | 27.4 | 0.00 | 0.05 | 0.00 | 67 | 1009.2 |
| 20260506150504 | 18 | 285 | 16.1 | 32.2 | 0.00 | 0.05 | 0.00 | 67 | 1009.2 |
| 20260506145503 | 18 | 289 | 9.7 | 32.2 | 0.00 | 0.05 | 0.00 | 67 | 1009.3 |
| 20260506144504 | 18 | 286 | 12.9 | 29.0 | 0.00 | 0.05 | 0.00 | 66 | 1008.9 |
| 20260506143504 | 18 | 287 | 11.3 | 24.1 | 0.00 | 0.05 | 0.00 | 66 | 1009.1 |
| 20260506142504 | 18 | 287 | 9.7 | 32.2 | 0.00 | 0.05 | 0.00 | 66 | 1009.1 |
| 20260506141504 | 18 | 280 | 11.3 | 22.5 | 0.00 | 0.05 | 0.00 | 68 | 1009.0 |
| 20260506140504 | 18 | 282 | 12.9 | 25.7 | 0.00 | 0.13 | 0.00 | 69 | 1008.8 |
| 20260506135503 | 18 | 284 | 8.0 | 29.0 | 0.00 | 0.13 | 0.00 | 70 | 1008.7 |
| 20260506134503 | 18 | 281 | 8.0 | 19.3 | 0.00 | 0.15 | 0.00 | 71 | 1008.6 |
| 20260506133504 | 17 | 279 | 4.8 | 24.1 | 0.00 | 0.15 | 0.00 | 72 | 1008.8 |
| 20260506131504 | 17 | 283 | 9.7 | 24.1 | 0.00 | 0.15 | 0.00 | 72 | 1009.0 |
| 20260506130504 | 17 | 284 | 12.9 | 40.2 | 0.00 | 0.15 | 0.00 | 73 | 1009.0 |
| 20260506125504 | 17 | 284 | 12.9 | 32.2 | 0.00 | 0.15 | 0.00 | 74 | 1009.1 |
| 20260506124503 | 17 | 285 | 9.7 | 27.4 | 0.00 | 0.15 | 0.00 | 76 | 1009.1 |
| 20260506123504 | 16 | 286 | 12.9 | 27.4 | 0.00 | 0.15 | 0.00 | 77 | 1009.3 |
| 20260506122503 | 16 | 277 | 14.5 | 25.7 | 0.00 | 0.15 | 0.00 | 78 | 1009.2 |
| 20260506121504 | 16 | 286 | 8.0 | 25.7 | 0.00 | 0.15 | 0.00 | 78 | 1009.1 |
| 20260506115504 | 16 | 288 | 14.5 | 27.4 | 0.00 | 0.15 | 0.00 | 78 | 1009.3 |
| 20260506114504 | 16 | 306 | 14.5 | 37.0 | 0.00 | 0.15 | 0.00 | 78 | 1009.4 |
| 20260506113504 | 16 | 283 | 9.7 | 19.3 | 0.00 | 0.15 | 0.00 | 79 | 1009.3 |
| 20260506112504 | 15 | 285 | 11.3 | 24.1 | 0.00 | 0.15 | 0.00 | 79 | 1009.5 |
| 20260506111504 | 15 | 289 | 9.7 | 32.2 | 0.00 | 0.15 | 0.00 | 79 | 1009.6 |
| 20260506105504 | 15 | 287 | 11.3 | 27.4 | 0.00 | 0.15 | 0.00 | 79 | 1009.6 |
| 20260506104504 | 15 | 285 | 9.7 | 22.5 | 0.00 | 0.15 | 0.00 | 79 | 1009.3 |
| 20260506103504 | 15 | 283 | 14.5 | 32.2 | 0.00 | 0.15 | 0.00 | 79 | 1009.5 |
| 20260506102503 | 15 | 288 | 8.0 | 20.9 | 0.00 | 0.15 | 0.00 | 79 | 1009.3 |